Airfield :
LOGIN :

Register | Disclaimer

   EN    FR    IT 

 










Legend :    VFR   Marginal VFR   IFR   Intensive IFR   Very Intensive IFR
Visi :
Ceiling :
>= 8 km
>= 3000ft
5 to 8 km
1000 to 3000 ft
1500m to 5 km
500 to 1000 ft
800 to 1500m
200 to 500 ft
< 800m
< 200 ft
Symbols :   Thunderstorms  Fog  Heavy snow  Heavy precipitations  Wind > 20 kt
SIGMETs :     Misc.  Thunderstorms  Icing  Turbulence  Mountain Waves  Volcanic Ashes






- Airport Elevation : 286 ft
- IATA code : FFD


EGVA - RAF Fairford

CURRENT METAR :
  • 150856Z 29006KT 9999 SCT120 22/15 A2958 RMK AO2A SLP016 T02210145 52008 $

EXPIRED METARs :
  • 150756Z 24008KT 9999 SCT120 21/12 A2957 RMK AO2A SLP013 T02130124 $
  • 150656Z 25005KT 9999 SCT110 19/11 A2957 RMK AO2A SLP013 T01930108 $
  • 150641Z COR 26004KT 9999 BKN120 19/11 A2956 RMK AO2A SLP009 $ COR 0645

TAF TAF EGVA
Valid from the 15 at 04:00 until the 16 at 10:00 UTC


150430Z 1504/1610 VRB06KT 9999 SCT070 BKN150 QNH2956INS
BECMG 1512/1513 31012KT 9999 VCSH FEW050 BKN080 QNH2957INS
BECMG 1516/1517 VRB06KT 9999 NSW FEW040 BKN070 QNH2959INS
TEMPO 1521/1603 21008KT -SHRA BKN040
BECMG 1604/1605 VRB05KT 9999 FEW010 BKN030 QNH2960INS TX26/1517Z TN16/1604Z



MET'MAP, your aeronautical weather chart ! - Copyright ORBIFLY December 2007 - Disclaimer

ORBIFLY MET'MAP TEAM :

Programming & Development : Alexandra Zaïnal
Original concept : Baudouin d'Aumeries
Technical & hardware support : Manuel Goepfert
Assistance : Marc-Olivier Méhu




SOURCES & CREDITS :

   NOAA